createdAt,value
2023-05-13T00:02:12.904Z,5.63
2023-05-13T00:04:39.771Z,5.55
2023-05-13T00:07:06.610Z,5.50
2023-05-13T00:09:33.291Z,5.40
2023-05-13T00:12:00.122Z,5.38
2023-05-13T00:14:26.852Z,5.30
2023-05-13T00:16:53.614Z,5.63
2023-05-13T00:19:20.694Z,5.45
2023-05-13T00:21:47.458Z,6.05
2023-05-13T00:24:14.181Z,6.00
2023-05-13T00:26:40.928Z,5.88
2023-05-13T00:29:07.735Z,6.20
2023-05-13T00:31:34.581Z,6.20
2023-05-13T00:34:01.365Z,5.78
2023-05-13T00:36:28.760Z,6.43
2023-05-13T00:38:55.696Z,6.15
2023-05-13T00:41:23.020Z,5.90
2023-05-13T00:43:49.812Z,5.82
2023-05-13T00:46:16.615Z,5.80
2023-05-13T00:48:43.872Z,5.75
2023-05-13T00:51:10.753Z,5.43
2023-05-13T00:53:38.887Z,5.30
2023-05-13T00:56:05.749Z,5.60
2023-05-13T00:58:32.445Z,5.45
2023-05-13T01:01:26.953Z,5.30
2023-05-13T01:04:11.541Z,5.07
2023-05-13T01:06:57.034Z,5.03
2023-05-13T01:09:55.241Z,4.97
2023-05-13T01:12:28.763Z,5.13
2023-05-13T01:15:08.869Z,5.63
2023-05-13T01:17:51.135Z,4.80
2023-05-13T01:20:22.365Z,5.70
2023-05-13T01:22:49.559Z,6.15
2023-05-13T01:25:16.465Z,5.50
2023-05-13T01:27:43.262Z,5.78
2023-05-13T01:30:10.903Z,5.32
2023-05-13T01:32:38.600Z,5.32
2023-05-13T01:35:07.470Z,5.80
2023-05-13T01:37:34.426Z,5.60
2023-05-13T01:40:01.830Z,5.70
2023-05-13T01:42:30.229Z,6.03
2023-05-13T01:44:57.915Z,5.70
2023-05-13T01:47:24.755Z,6.03
2023-05-13T01:49:51.499Z,5.88
2023-05-13T01:52:18.458Z,5.95
2023-05-13T01:54:45.255Z,5.88
2023-05-13T01:57:11.974Z,6.32
2023-05-13T01:59:38.747Z,6.00
2023-05-13T02:02:05.621Z,6.45
2023-05-13T02:04:32.402Z,6.68
2023-05-13T02:06:59.221Z,6.78
2023-05-13T02:09:26.048Z,6.35
2023-05-13T02:11:52.808Z,6.35
2023-05-13T02:14:20.579Z,5.78
2023-05-13T02:16:47.385Z,6.70
2023-05-13T02:19:14.174Z,6.38
2023-05-13T02:21:41.156Z,6.50
2023-05-13T02:24:08.007Z,6.53
2023-05-13T02:26:34.834Z,6.40
2023-05-13T02:29:01.655Z,6.15
2023-05-13T02:31:28.568Z,6.57
2023-05-13T02:33:55.482Z,6.80
2023-05-13T02:36:22.280Z,6.22
2023-05-13T02:38:48.977Z,6.40
2023-05-13T02:41:15.708Z,5.70
2023-05-13T02:43:42.557Z,6.25
2023-05-13T02:46:09.329Z,6.85
2023-05-13T02:48:36.114Z,6.95
2023-05-13T02:51:02.870Z,6.55
2023-05-13T02:53:29.720Z,6.93
2023-05-13T02:55:56.466Z,7.25
2023-05-13T02:58:23.230Z,6.85
2023-05-13T03:00:49.935Z,6.95
2023-05-13T03:03:16.803Z,6.93
2023-05-13T03:05:43.725Z,6.90
2023-05-13T03:08:10.394Z,7.30
2023-05-13T03:10:37.098Z,7.07
2023-05-13T03:13:03.840Z,7.20
2023-05-13T03:15:30.583Z,7.57
2023-05-13T03:17:57.857Z,7.32
2023-05-13T03:20:24.736Z,7.47
2023-05-13T03:22:51.542Z,7.57
2023-05-13T03:25:18.414Z,7.45
2023-05-13T03:27:45.153Z,7.70
2023-05-13T03:30:12.221Z,8.38
2023-05-13T03:32:39.227Z,8.05
2023-05-13T03:35:06.102Z,8.75
2023-05-13T03:37:32.772Z,8.20
2023-05-13T03:39:59.541Z,8.05
2023-05-13T03:42:26.501Z,8.38
2023-05-13T03:44:53.328Z,8.57
2023-05-13T03:47:20.101Z,9.25
2023-05-13T03:49:48.022Z,8.70
2023-05-13T03:52:14.817Z,8.98
2023-05-13T03:54:41.548Z,8.95
2023-05-13T03:57:09.097Z,9.35
2023-05-13T03:59:35.761Z,8.68
2023-05-13T04:02:02.575Z,9.68
2023-05-13T04:04:29.322Z,9.30
2023-05-13T04:06:56.075Z,10.27
2023-05-13T04:09:22.765Z,9.93
2023-05-13T04:11:49.933Z,9.73
2023-05-13T04:14:16.663Z,9.38
2023-05-13T04:16:43.590Z,9.35
2023-05-13T04:19:10.490Z,9.20
2023-05-13T04:21:37.299Z,10.10
2023-05-13T04:24:04.262Z,10.18
2023-05-13T04:26:30.947Z,10.07
2023-05-13T04:28:57.703Z,9.27
2023-05-13T04:31:24.439Z,10.23
2023-05-13T04:33:51.203Z,9.27
2023-05-13T04:36:17.944Z,9.20
2023-05-13T04:38:44.940Z,9.38
2023-05-13T04:41:11.668Z,9.63
2023-05-13T04:43:38.467Z,9.60
2023-05-13T04:46:05.517Z,10.38
2023-05-13T04:48:32.246Z,9.77
2023-05-13T04:50:59.562Z,10.15
2023-05-13T04:53:26.902Z,10.27
2023-05-13T04:56:00.480Z,10.30
2023-05-13T04:58:28.202Z,10.50
2023-05-13T05:00:55.019Z,10.13
2023-05-13T05:03:22.066Z,9.70
2023-05-13T05:05:48.882Z,9.75
2023-05-13T05:08:16.359Z,9.25
2023-05-13T05:10:43.152Z,9.50
2023-05-13T05:13:11.117Z,9.73
2023-05-13T05:15:37.848Z,9.80
2023-05-13T05:18:06.633Z,9.88
2023-05-13T05:20:33.584Z,9.98
2023-05-13T05:23:00.406Z,10.05
2023-05-13T05:25:27.262Z,10.15
2023-05-13T05:27:53.985Z,9.95
2023-05-13T05:30:21.279Z,9.93
2023-05-13T05:32:48.449Z,10.48
2023-05-13T05:35:16.922Z,9.98
2023-05-13T05:37:43.690Z,9.85
2023-05-13T05:40:10.852Z,10.02
2023-05-13T05:42:38.062Z,9.40
2023-05-13T05:45:05.137Z,9.82
2023-05-13T05:47:31.846Z,10.23
2023-05-13T05:49:58.691Z,9.48
2023-05-13T05:52:25.756Z,9.40
2023-05-13T05:54:52.510Z,9.93
2023-05-13T05:57:19.211Z,9.40
2023-05-13T05:59:45.881Z,9.60
2023-05-13T06:02:12.759Z,9.38
2023-05-13T06:04:41.759Z,10.32
2023-05-13T06:07:08.908Z,9.35
2023-05-13T06:09:35.699Z,9.30
2023-05-13T06:12:02.536Z,9.63
2023-05-13T06:14:29.264Z,9.00
2023-05-13T06:16:56.123Z,9.30
2023-05-13T06:19:22.918Z,9.90
2023-05-13T06:21:49.691Z,9.68
2023-05-13T06:24:16.459Z,9.45
2023-05-13T06:26:44.228Z,9.35
2023-05-13T06:29:11.070Z,8.98
2023-05-13T06:31:37.818Z,9.65
2023-05-13T06:34:04.755Z,9.50
2023-05-13T06:36:31.975Z,10.15
2023-05-13T06:38:58.770Z,9.70
2023-05-13T06:41:25.995Z,9.23
2023-05-13T06:43:52.727Z,9.65
2023-05-13T06:46:19.442Z,9.50
2023-05-13T06:48:46.246Z,9.77
2023-05-13T06:51:13.142Z,8.82
2023-05-13T06:53:39.831Z,8.70
2023-05-13T06:56:07.033Z,8.73
2023-05-13T06:58:33.794Z,8.90
2023-05-13T07:01:00.679Z,9.07
2023-05-13T07:03:27.475Z,8.45
2023-05-13T07:05:54.329Z,8.48
2023-05-13T07:08:21.160Z,8.40
2023-05-13T07:10:47.909Z,8.13
2023-05-13T07:13:14.843Z,7.93
2023-05-13T07:15:41.616Z,7.85
2023-05-13T07:18:08.942Z,8.35
2023-05-13T07:20:35.697Z,7.95
2023-05-13T07:23:02.515Z,7.60
2023-05-13T07:25:29.302Z,8.23
2023-05-13T07:27:56.355Z,7.43
2023-05-13T07:30:23.421Z,7.57
2023-05-13T07:32:52.013Z,7.00
2023-05-13T07:35:20.878Z,7.28
2023-05-13T07:37:47.997Z,7.85
2023-05-13T07:40:14.772Z,7.93
2023-05-13T07:42:41.514Z,8.00
2023-05-13T07:45:08.787Z,7.65
2023-05-13T07:47:35.733Z,7.38
2023-05-13T07:50:02.658Z,7.53
2023-05-13T07:52:29.478Z,8.05
2023-05-13T07:54:56.294Z,7.60
2023-05-13T07:57:23.028Z,6.82
2023-05-13T07:59:49.778Z,7.53
2023-05-13T08:02:16.513Z,7.22
2023-05-13T08:04:43.258Z,7.13
2023-05-13T08:07:11.734Z,7.18
2023-05-13T08:09:38.688Z,7.43
2023-05-13T08:12:06.415Z,7.22
2023-05-13T08:14:33.185Z,7.40
2023-05-13T08:16:59.979Z,7.82
2023-05-13T08:19:26.674Z,7.05
2023-05-13T08:21:53.443Z,7.25
2023-05-13T08:24:20.154Z,7.22
2023-05-13T08:26:47.204Z,7.22
2023-05-13T08:29:15.681Z,8.30
2023-05-13T08:31:42.557Z,7.40
2023-05-13T08:34:09.330Z,8.00
2023-05-13T08:36:36.067Z,8.38
2023-05-13T08:39:02.860Z,8.05
2023-05-13T08:41:31.815Z,8.05
2023-05-13T08:43:59.546Z,7.85
2023-05-13T08:46:28.962Z,7.50
2023-05-13T08:48:56.867Z,7.57
2023-05-13T08:51:23.993Z,7.30
2023-05-13T08:53:53.142Z,7.60
2023-05-13T08:56:20.027Z,7.45
2023-05-13T08:58:46.803Z,7.18
2023-05-13T09:01:14.958Z,7.45
2023-05-13T09:04:02.255Z,8.00
2023-05-13T09:06:29.692Z,6.85
2023-05-13T09:08:56.631Z,7.63
2023-05-13T09:11:23.763Z,8.43
2023-05-13T09:14:01.956Z,6.97
2023-05-13T09:16:29.799Z,7.05
2023-05-13T09:19:03.107Z,7.53
2023-05-13T09:21:32.097Z,7.25
2023-05-13T09:24:13.418Z,6.68
2023-05-13T09:26:42.078Z,7.90
2023-05-13T09:29:24.852Z,6.82
2023-05-13T09:31:54.873Z,7.15
2023-05-13T09:34:33.119Z,6.45
2023-05-13T09:37:00.722Z,6.13
2023-05-13T09:39:27.938Z,6.53
2023-05-13T09:41:54.686Z,6.57
2023-05-13T09:44:22.362Z,6.57
2023-05-13T09:46:51.385Z,5.90
2023-05-13T09:49:18.612Z,6.70
2023-05-13T09:51:45.961Z,7.10
2023-05-13T09:54:13.029Z,6.45
2023-05-13T09:56:39.861Z,6.28
2023-05-13T09:59:06.722Z,6.40
2023-05-13T10:01:36.661Z,6.93
2023-05-13T10:04:06.108Z,7.10
2023-05-13T10:06:34.171Z,6.53
2023-05-13T10:09:04.397Z,6.55
2023-05-13T10:14:03.051Z,6.55
2023-05-13T10:16:30.323Z,5.93
2023-05-13T10:18:58.903Z,5.78
2023-05-13T10:21:27.585Z,5.70
2023-05-13T10:23:55.918Z,6.57
2023-05-13T10:26:23.563Z,6.50
2023-05-13T10:28:50.728Z,6.85
2023-05-13T10:31:17.785Z,6.32
2023-05-13T10:33:45.576Z,7.18
2023-05-13T10:36:38.661Z,6.00
2023-05-13T10:39:47.258Z,6.25
2023-05-13T10:42:30.839Z,6.15
2023-05-13T10:45:01.565Z,6.65
2023-05-13T10:47:32.574Z,6.20
2023-05-13T10:50:04.900Z,6.90
2023-05-13T10:52:47.826Z,6.30
2023-05-13T10:55:20.365Z,6.60
2023-05-13T10:58:12.164Z,6.40
2023-05-13T11:00:41.129Z,7.00
2023-05-13T11:03:16.527Z,5.93
2023-05-13T11:05:58.104Z,6.18
2023-05-13T11:08:38.937Z,6.03
2023-05-13T11:11:19.146Z,5.82
2023-05-13T11:16:15.992Z,6.20
2023-05-13T11:18:42.959Z,5.80
2023-05-13T11:21:10.067Z,5.45
2023-05-13T11:23:57.702Z,5.60
2023-05-13T11:26:24.698Z,5.82
2023-05-13T11:28:58.548Z,4.68
2023-05-13T11:31:27.554Z,5.55
2023-05-13T11:34:11.058Z,4.95
2023-05-13T11:36:43.162Z,5.30
2023-05-13T11:39:15.232Z,4.82
2023-05-13T11:41:46.974Z,4.70
2023-05-13T11:44:21.883Z,5.07
2023-05-13T11:47:08.540Z,5.45
2023-05-13T11:49:38.844Z,4.88
2023-05-13T11:52:11.107Z,4.60
2023-05-13T11:54:52.324Z,5.35
2023-05-13T11:57:28.944Z,5.75
2023-05-13T12:00:01.216Z,5.78
2023-05-13T12:02:30.945Z,4.80
2023-05-13T12:05:05.736Z,5.45
2023-05-13T12:07:33.556Z,4.88
2023-05-13T12:10:02.699Z,5.43
2023-05-13T12:12:31.299Z,5.47
2023-05-13T12:15:03.111Z,5.35
2023-05-13T12:17:31.509Z,4.93
2023-05-13T12:20:18.833Z,6.20
2023-05-13T12:22:45.499Z,6.07
2023-05-13T12:25:47.732Z,5.68
2023-05-13T12:28:21.274Z,5.55
2023-05-13T12:30:58.911Z,4.97
2023-05-13T12:33:31.034Z,4.50
2023-05-13T12:36:20.570Z,5.07
2023-05-13T12:39:11.491Z,4.72
2023-05-13T12:41:42.264Z,4.10
2023-05-13T12:44:10.032Z,4.50
2023-05-13T12:46:37.736Z,4.10
2023-05-13T12:49:06.126Z,4.20
2023-05-13T12:51:34.022Z,4.05
2023-05-13T12:54:01.049Z,3.90
2023-05-13T12:56:27.981Z,3.72
2023-05-13T12:58:54.864Z,3.63
2023-05-13T13:01:22.030Z,3.33
2023-05-13T13:03:48.865Z,3.70
2023-05-13T13:06:16.007Z,3.40
2023-05-13T13:08:42.839Z,3.47
2023-05-13T13:11:10.393Z,3.75
2023-05-13T13:13:39.215Z,3.65
2023-05-13T13:16:06.689Z,3.70
2023-05-13T13:18:33.486Z,3.83
2023-05-13T13:21:00.198Z,3.55
2023-05-13T13:23:27.027Z,3.78
2023-05-13T13:25:53.815Z,3.65
2023-05-13T13:28:20.535Z,3.85
2023-05-13T13:30:47.567Z,4.00
2023-05-13T13:33:15.708Z,3.67
2023-05-13T13:35:47.162Z,3.40
2023-05-13T13:38:14.764Z,3.70
2023-05-13T13:40:41.761Z,3.55
2023-05-13T13:43:09.184Z,3.22
2023-05-13T13:45:36.200Z,3.90
2023-05-13T13:48:03.092Z,3.47
2023-05-13T13:50:29.947Z,3.20
2023-05-13T13:52:56.735Z,3.75
2023-05-13T13:55:24.453Z,3.95
2023-05-13T13:57:52.131Z,3.40
2023-05-13T14:00:19.430Z,3.38
2023-05-13T14:02:46.467Z,3.35
2023-05-13T14:05:13.682Z,3.55
2023-05-13T14:07:40.417Z,3.35
2023-05-13T14:10:08.318Z,4.95
2023-05-13T14:12:36.370Z,3.58
2023-05-13T14:15:03.437Z,2.88
2023-05-13T14:17:30.318Z,2.88
2023-05-13T14:19:57.186Z,3.00
2023-05-13T14:22:24.356Z,2.80
2023-05-13T14:24:52.399Z,3.20
2023-05-13T14:27:20.081Z,3.08
2023-05-13T14:29:49.077Z,3.10
2023-05-13T14:32:17.104Z,3.40
2023-05-13T14:34:43.823Z,3.45
2023-05-13T14:37:10.618Z,3.85
2023-05-13T14:39:37.349Z,3.97
2023-05-13T14:42:04.476Z,3.78
2023-05-13T14:44:31.939Z,3.60
2023-05-13T14:46:58.950Z,3.83
2023-05-13T14:49:25.755Z,3.03
2023-05-13T14:51:52.665Z,3.17
2023-05-13T14:54:19.445Z,3.08
2023-05-13T14:56:46.336Z,3.03
2023-05-13T14:59:13.275Z,3.25
2023-05-13T15:01:40.164Z,3.17
2023-05-13T15:04:06.989Z,3.88
2023-05-13T15:06:34.201Z,3.60
2023-05-13T15:09:01.067Z,4.43
2023-05-13T15:11:28.335Z,4.85
2023-05-13T15:13:55.358Z,4.40
2023-05-13T15:16:22.703Z,4.28
2023-05-13T15:18:50.273Z,4.30
2023-05-13T15:21:17.563Z,3.67
2023-05-13T15:23:44.731Z,3.72
2023-05-13T15:26:11.771Z,4.22
2023-05-13T15:28:38.717Z,4.10
2023-05-13T15:31:06.451Z,4.18
2023-05-13T15:33:33.527Z,4.22
2023-05-13T15:36:01.114Z,4.25
2023-05-13T15:38:28.147Z,3.90
2023-05-13T15:40:54.910Z,4.00
2023-05-13T15:43:21.740Z,4.00
2023-05-13T15:45:50.060Z,4.20
2023-05-13T15:48:17.765Z,4.10
2023-05-13T15:50:44.823Z,3.90
2023-05-13T15:53:11.751Z,3.90
2023-05-13T15:55:39.548Z,4.28
2023-05-13T15:58:07.086Z,4.47
2023-05-13T16:00:33.982Z,3.92
2023-05-13T16:03:01.104Z,4.20
2023-05-13T16:05:28.133Z,4.43
2023-05-13T16:07:55.994Z,4.35
2023-05-13T16:10:23.154Z,4.22
2023-05-13T16:12:50.068Z,4.53
2023-05-13T16:15:17.790Z,3.75
2023-05-13T16:17:44.486Z,4.40
2023-05-13T16:20:11.892Z,4.20
2023-05-13T16:22:39.245Z,4.53
2023-05-13T16:25:08.171Z,4.50
2023-05-13T16:27:36.490Z,4.57
2023-05-13T16:30:04.695Z,4.32
2023-05-13T16:32:31.533Z,4.85
2023-05-13T16:34:58.780Z,4.13
2023-05-13T16:37:25.605Z,4.10
2023-05-13T16:39:52.420Z,4.28
2023-05-13T16:42:22.188Z,4.03
2023-05-13T16:44:48.941Z,4.25
2023-05-13T16:47:15.670Z,4.03
2023-05-13T16:49:42.686Z,4.05
2023-05-13T16:52:09.471Z,4.65
2023-05-13T16:54:36.272Z,4.18
2023-05-13T16:57:03.065Z,4.13
2023-05-13T16:59:29.861Z,3.85
2023-05-13T17:01:56.639Z,4.30
2023-05-13T17:04:23.426Z,4.00
2023-05-13T17:06:50.209Z,3.88
2023-05-13T17:09:16.982Z,4.30
2023-05-13T17:11:43.785Z,3.85
2023-05-13T17:14:10.645Z,4.22
2023-05-13T17:16:38.367Z,4.20
2023-05-13T17:19:05.191Z,4.32
2023-05-13T17:21:31.995Z,4.07
2023-05-13T17:23:59.183Z,4.05
2023-05-13T17:26:26.509Z,3.80
2023-05-13T17:28:53.708Z,4.20
2023-05-13T17:31:20.546Z,4.30
2023-05-13T17:33:47.525Z,3.90
2023-05-13T17:36:14.212Z,4.30
2023-05-13T17:38:41.598Z,4.47
2023-05-13T17:41:08.294Z,4.60
2023-05-13T17:43:36.279Z,4.75
2023-05-13T17:46:03.788Z,4.40
2023-05-13T17:48:31.744Z,4.35
2023-05-13T17:50:59.026Z,4.60
2023-05-13T17:53:25.758Z,4.72
2023-05-13T17:55:53.711Z,4.10
2023-05-13T17:58:20.759Z,4.20
2023-05-13T18:00:48.299Z,4.22
2023-05-13T18:03:15.429Z,4.47
2023-05-13T18:05:42.259Z,4.35
2023-05-13T18:08:09.039Z,4.45
2023-05-13T18:10:35.914Z,3.88
2023-05-13T18:13:03.059Z,4.15
2023-05-13T18:15:29.966Z,4.28
2023-05-13T18:17:56.800Z,3.97
2023-05-13T18:20:23.817Z,4.50
2023-05-13T18:22:50.695Z,4.00
2023-05-13T18:25:17.550Z,4.13
2023-05-13T18:27:44.286Z,4.30
2023-05-13T18:30:11.719Z,4.18
2023-05-13T18:32:38.539Z,4.80
2023-05-13T18:35:05.731Z,4.28
2023-05-13T18:37:32.461Z,4.60
2023-05-13T18:39:59.198Z,4.63
2023-05-13T18:42:26.245Z,4.53
2023-05-13T18:44:53.014Z,4.95
2023-05-13T18:47:19.753Z,4.75
2023-05-13T18:49:46.552Z,5.20
2023-05-13T18:52:13.316Z,4.65
2023-05-13T18:54:40.146Z,4.72
2023-05-13T18:57:06.892Z,4.90
2023-05-13T18:59:33.725Z,4.75
2023-05-13T19:02:00.574Z,4.80
2023-05-13T19:04:27.556Z,5.25
2023-05-13T19:06:54.397Z,5.20
2023-05-13T19:09:21.692Z,4.68
2023-05-13T19:11:48.419Z,4.93
2023-05-13T19:14:15.201Z,4.80
2023-05-13T19:16:42.008Z,5.07
2023-05-13T19:19:08.993Z,4.57
2023-05-13T19:21:35.969Z,5.78
2023-05-13T19:24:03.394Z,5.60
2023-05-13T19:26:30.767Z,5.63
2023-05-13T19:28:57.734Z,5.40
2023-05-13T19:31:24.770Z,5.60
2023-05-13T19:33:51.517Z,5.78
2023-05-13T19:36:18.306Z,5.65
2023-05-13T19:38:45.127Z,6.13
2023-05-13T19:41:11.900Z,6.30
2023-05-13T19:43:38.666Z,6.20
2023-05-13T19:46:05.681Z,6.00
2023-05-13T19:48:32.437Z,6.35
2023-05-13T19:50:59.241Z,6.60
2023-05-13T19:53:26.204Z,6.75
2023-05-13T19:55:53.016Z,6.38
2023-05-13T19:58:19.771Z,6.68
2023-05-13T20:00:46.571Z,6.55
2023-05-13T20:03:13.687Z,6.70
2023-05-13T20:05:41.328Z,6.63
2023-05-13T20:08:08.256Z,6.95
2023-05-13T20:10:37.710Z,7.40
2023-05-13T20:13:04.687Z,7.15
2023-05-13T20:15:31.860Z,7.97
2023-05-13T20:17:58.668Z,9.10
2023-05-13T20:20:25.710Z,7.68
2023-05-13T20:22:52.572Z,7.65
2023-05-13T20:25:19.554Z,7.57
2023-05-13T20:27:46.276Z,7.57
2023-05-13T20:30:13.817Z,7.28
2023-05-13T20:32:40.694Z,8.43
2023-05-13T20:35:08.678Z,9.68
2023-05-13T20:37:35.564Z,7.80
2023-05-13T20:40:02.436Z,7.50
2023-05-13T20:42:29.195Z,7.43
2023-05-13T20:44:55.949Z,7.53
2023-05-13T20:47:22.782Z,8.00
2023-05-13T20:49:49.587Z,8.40
2023-05-13T20:52:16.699Z,7.28
2023-05-13T20:54:43.581Z,8.55
2023-05-13T20:57:10.296Z,7.70
2023-05-13T20:59:37.442Z,8.07
2023-05-13T21:02:04.427Z,7.97
2023-05-13T21:04:31.133Z,7.68
2023-05-13T21:06:57.885Z,8.27
2023-05-13T21:09:24.651Z,8.40
2023-05-13T21:11:51.380Z,8.40
2023-05-13T21:14:18.183Z,7.70
2023-05-13T21:16:45.027Z,8.43
2023-05-13T21:19:24.902Z,7.63
2023-05-13T21:21:51.695Z,8.40
2023-05-13T21:24:19.722Z,8.77
2023-05-13T21:26:47.360Z,8.25
2023-05-13T21:29:14.219Z,8.43
2023-05-13T21:31:41.156Z,8.50
2023-05-13T21:34:08.144Z,8.95
2023-05-13T21:36:34.898Z,8.40
2023-05-13T21:39:01.616Z,8.90
2023-05-13T21:41:28.339Z,8.70
2023-05-13T21:43:55.037Z,8.50
2023-05-13T21:46:21.719Z,8.75
2023-05-13T21:48:48.578Z,9.07
2023-05-13T21:51:15.379Z,9.18
2023-05-13T21:53:43.620Z,9.05
2023-05-13T21:56:10.916Z,8.68
2023-05-13T21:58:37.688Z,9.20
2023-05-13T22:01:04.509Z,8.93
2023-05-13T22:03:31.320Z,9.52
2023-05-13T22:05:58.134Z,8.63
2023-05-13T22:08:24.868Z,9.18
2023-05-13T22:10:51.543Z,9.18
2023-05-13T22:13:21.392Z,9.65
2023-05-13T22:15:48.946Z,9.15
2023-05-13T22:18:15.949Z,8.85
2023-05-13T22:20:42.742Z,8.90
2023-05-13T22:23:09.438Z,9.45
2023-05-13T22:25:36.197Z,9.88
2023-05-13T22:28:03.063Z,9.32
2023-05-13T22:30:29.833Z,10.02
2023-05-13T22:32:57.020Z,9.20
2023-05-13T22:35:23.862Z,9.35
2023-05-13T22:37:52.599Z,9.10
2023-05-13T22:40:19.440Z,8.77
2023-05-13T22:42:46.239Z,8.68
2023-05-13T22:45:12.958Z,9.02
2023-05-13T22:47:39.704Z,9.70
2023-05-13T22:50:07.110Z,8.80
2023-05-13T22:52:33.891Z,9.50
2023-05-13T22:55:01.305Z,9.40
2023-05-13T22:57:28.047Z,9.18
2023-05-13T22:59:54.886Z,8.80
2023-05-13T23:02:21.680Z,9.18
2023-05-13T23:04:48.488Z,8.60
2023-05-13T23:07:15.334Z,9.52
2023-05-13T23:09:42.097Z,9.60
2023-05-13T23:12:08.888Z,9.77
2023-05-13T23:14:35.944Z,9.65
2023-05-13T23:17:02.703Z,9.75
2023-05-13T23:19:29.842Z,9.40
2023-05-13T23:21:56.667Z,10.23
2023-05-13T23:24:23.447Z,9.85
2023-05-13T23:26:50.211Z,10.80
2023-05-13T23:29:17.177Z,9.90
2023-05-13T23:31:43.921Z,10.38
2023-05-13T23:34:10.814Z,10.45
2023-05-13T23:36:37.651Z,10.40
2023-05-13T23:39:04.607Z,10.70
2023-05-13T23:41:31.394Z,9.75
2023-05-13T23:43:58.244Z,10.52
2023-05-13T23:46:25.069Z,9.95
2023-05-13T23:48:51.796Z,10.13
2023-05-13T23:51:18.528Z,10.90
2023-05-13T23:53:45.402Z,11.00
2023-05-13T23:56:12.077Z,10.60
2023-05-13T23:58:38.869Z,10.25
